createdAt,value
2023-03-06T00:00:22.512Z,3.00
2023-03-06T00:02:49.206Z,2.94
2023-03-06T00:05:16.392Z,3.00
2023-03-06T00:07:43.507Z,2.99
2023-03-06T00:10:28.194Z,2.99
2023-03-06T00:12:57.055Z,2.98
2023-03-06T00:15:25.414Z,2.96
2023-03-06T00:17:52.304Z,2.89
2023-03-06T00:20:19.898Z,2.89
2023-03-06T00:22:47.318Z,2.84
2023-03-06T00:25:21.426Z,2.86
2023-03-06T00:27:49.344Z,2.77
2023-03-06T00:30:19.413Z,2.85
2023-03-06T00:32:46.492Z,2.79
2023-03-06T00:35:13.586Z,2.80
2023-03-06T00:37:41.284Z,2.75
2023-03-06T00:40:11.946Z,2.79
2023-03-06T00:42:39.576Z,2.76
2023-03-06T00:45:06.865Z,2.62
2023-03-06T00:47:33.832Z,2.74
2023-03-06T00:50:00.632Z,2.77
2023-03-06T00:52:27.386Z,2.69
2023-03-06T00:54:54.108Z,2.65
2023-03-06T00:57:20.978Z,2.60
2023-03-06T00:59:47.753Z,2.72
2023-03-06T01:02:15.065Z,2.68
2023-03-06T01:04:41.876Z,2.66
2023-03-06T01:07:08.607Z,2.73
2023-03-06T01:09:35.324Z,2.69
2023-03-06T01:12:02.118Z,2.74
2023-03-06T01:14:29.088Z,2.72
2023-03-06T01:16:55.840Z,2.71
2023-03-06T01:19:22.620Z,2.70
2023-03-06T01:21:49.320Z,2.70
2023-03-06T01:24:16.030Z,2.54
2023-03-06T01:26:42.771Z,2.69
2023-03-06T01:29:09.762Z,2.62
2023-03-06T01:31:36.609Z,2.69
2023-03-06T01:34:03.448Z,2.68
2023-03-06T01:36:30.156Z,2.64
2023-03-06T01:38:57.077Z,2.66
2023-03-06T01:41:24.515Z,2.55
2023-03-06T01:43:51.566Z,2.60
2023-03-06T01:46:18.241Z,2.63
2023-03-06T01:48:46.903Z,2.55
2023-03-06T01:51:14.916Z,2.62
2023-03-06T01:53:43.784Z,2.60
2023-03-06T01:56:13.387Z,2.54
2023-03-06T01:58:43.734Z,2.61
2023-03-06T02:01:13.033Z,2.50
2023-03-06T02:03:42.468Z,2.52
2023-03-06T02:06:09.803Z,2.50
2023-03-06T02:08:36.660Z,2.51
2023-03-06T02:11:14.844Z,2.59
2023-03-06T02:13:43.198Z,2.56
2023-03-06T02:16:11.284Z,2.56
2023-03-06T02:18:40.965Z,2.49
2023-03-06T02:21:10.674Z,2.54
2023-03-06T02:23:50.480Z,2.45
2023-03-06T02:26:18.127Z,2.49
2023-03-06T02:28:44.872Z,2.52
2023-03-06T02:31:28.758Z,2.48
2023-03-06T02:34:13.948Z,2.55
2023-03-06T02:36:48.789Z,2.54
2023-03-06T02:39:18.366Z,2.49
2023-03-06T02:41:45.436Z,2.49
2023-03-06T02:44:14.012Z,2.49
2023-03-06T02:46:42.460Z,2.49
2023-03-06T02:49:09.956Z,2.39
2023-03-06T02:51:36.669Z,2.52
2023-03-06T02:54:03.487Z,2.49
2023-03-06T02:56:30.301Z,2.53
2023-03-06T02:58:57.562Z,2.54
2023-03-06T03:01:25.692Z,2.46
2023-03-06T03:03:52.575Z,2.49
2023-03-06T03:06:21.052Z,2.41
2023-03-06T03:08:48.967Z,2.48
2023-03-06T03:11:16.293Z,2.42
2023-03-06T03:13:44.339Z,2.47
2023-03-06T03:16:18.966Z,2.52
2023-03-06T03:18:50.909Z,2.51
2023-03-06T03:21:19.982Z,2.51
2023-03-06T03:23:47.987Z,2.51
2023-03-06T03:26:18.756Z,2.50
2023-03-06T03:28:52.696Z,2.50
2023-03-06T03:31:21.266Z,2.53
2023-03-06T03:33:48.087Z,2.51
2023-03-06T03:36:14.918Z,2.57
2023-03-06T03:38:45.674Z,2.58
2023-03-06T03:41:13.473Z,2.57
2023-03-06T03:43:40.315Z,2.58
2023-03-06T03:46:07.133Z,2.57
2023-03-06T03:48:34.164Z,2.53
2023-03-06T03:51:12.956Z,2.56
2023-03-06T03:53:44.748Z,2.53
2023-03-06T03:56:14.184Z,2.54
2023-03-06T03:58:52.487Z,2.51
2023-03-06T04:01:19.959Z,2.41
2023-03-06T04:03:46.885Z,2.53
2023-03-06T04:06:15.244Z,2.44
2023-03-06T04:08:42.460Z,2.54
2023-03-06T04:11:09.692Z,2.47
2023-03-06T04:13:36.518Z,2.51
2023-03-06T04:16:04.614Z,2.42
2023-03-06T04:18:33.201Z,2.40
2023-03-06T04:21:04.287Z,2.39
2023-03-06T04:23:31.433Z,2.20
2023-03-06T04:25:58.482Z,2.34
2023-03-06T04:28:25.523Z,2.31
2023-03-06T04:30:52.526Z,2.22
2023-03-06T04:33:20.469Z,2.17
2023-03-06T04:35:49.388Z,2.13
2023-03-06T04:38:21.690Z,2.17
2023-03-06T04:40:49.801Z,2.19
2023-03-06T04:43:16.872Z,2.18
2023-03-06T04:45:43.846Z,1.96
2023-03-06T04:48:14.489Z,2.08
2023-03-06T04:50:41.175Z,2.08
2023-03-06T04:53:08.771Z,2.04
2023-03-06T04:55:35.596Z,1.96
2023-03-06T04:58:02.686Z,2.01
2023-03-06T05:00:31.726Z,2.00
2023-03-06T05:03:00.353Z,1.96
2023-03-06T05:05:30.243Z,1.93
2023-03-06T05:07:57.338Z,1.98
2023-03-06T05:10:24.316Z,1.96
2023-03-06T05:12:51.145Z,1.89
2023-03-06T05:15:17.959Z,1.93
2023-03-06T05:17:47.655Z,2.01
2023-03-06T05:20:16.777Z,1.80
2023-03-06T05:22:44.768Z,2.01
2023-03-06T05:25:11.639Z,1.85
2023-03-06T05:27:39.528Z,1.88
2023-03-06T05:30:07.551Z,1.96
2023-03-06T05:32:35.777Z,1.92
2023-03-06T05:35:03.459Z,1.94
2023-03-06T05:37:46.590Z,2.00
2023-03-06T05:40:14.366Z,1.93
2023-03-06T05:42:41.102Z,1.89
2023-03-06T05:45:09.657Z,1.92
2023-03-06T05:47:36.626Z,1.92
2023-03-06T05:50:08.361Z,1.84
2023-03-06T05:52:35.087Z,1.96
2023-03-06T05:55:02.140Z,1.95
2023-03-06T05:57:28.843Z,2.01
2023-03-06T05:59:55.585Z,1.98
2023-03-06T06:02:22.606Z,1.97
2023-03-06T06:04:49.545Z,1.94
2023-03-06T06:07:17.165Z,2.01
2023-03-06T06:09:45.668Z,2.10
2023-03-06T06:12:12.687Z,2.11
2023-03-06T06:14:39.540Z,2.14
2023-03-06T06:17:06.302Z,2.14
2023-03-06T06:19:33.200Z,2.17
2023-03-06T06:22:02.624Z,2.21
2023-03-06T06:24:30.364Z,2.19
2023-03-06T06:26:58.488Z,2.30
2023-03-06T06:29:27.006Z,2.30
2023-03-06T06:31:54.642Z,2.33
2023-03-06T06:34:22.334Z,2.37
2023-03-06T06:36:53.155Z,2.46
2023-03-06T06:39:20.839Z,2.49
2023-03-06T06:42:02.996Z,2.52
2023-03-06T06:44:38.346Z,2.41
2023-03-06T06:47:24.419Z,2.52
2023-03-06T06:49:53.622Z,2.67
2023-03-06T06:52:21.112Z,2.72
2023-03-06T06:54:47.826Z,2.76
2023-03-06T06:57:14.902Z,2.81
2023-03-06T06:59:42.100Z,2.85
2023-03-06T07:02:12.476Z,2.87
2023-03-06T07:04:52.290Z,2.97
2023-03-06T07:07:25.371Z,2.97
2023-03-06T07:09:52.233Z,2.91
2023-03-06T07:12:19.367Z,2.99
2023-03-06T07:14:46.871Z,3.08
2023-03-06T07:17:13.588Z,3.16
2023-03-06T07:19:40.318Z,3.21
2023-03-06T07:22:07.673Z,3.36
2023-03-06T07:24:34.672Z,3.36
2023-03-06T07:27:02.257Z,3.46
2023-03-06T07:29:29.462Z,3.64
2023-03-06T07:31:56.363Z,3.69
2023-03-06T07:34:23.204Z,3.71
2023-03-06T07:36:50.936Z,3.92
2023-03-06T07:39:17.762Z,4.10
2023-03-06T07:41:44.747Z,4.14
2023-03-06T07:44:11.688Z,4.35
2023-03-06T07:46:38.426Z,4.43
2023-03-06T07:49:05.257Z,4.55
2023-03-06T07:51:32.163Z,4.60
2023-03-06T07:53:58.933Z,4.70
2023-03-06T07:56:25.712Z,4.81
2023-03-06T07:58:52.463Z,4.71
2023-03-06T08:01:21.608Z,4.89
2023-03-06T08:03:50.209Z,4.90
2023-03-06T08:06:25.550Z,5.11
2023-03-06T08:08:53.912Z,5.25
2023-03-06T08:11:22.756Z,5.34
2023-03-06T08:13:49.726Z,5.38
2023-03-06T08:16:17.673Z,5.56
2023-03-06T08:18:46.323Z,5.67
2023-03-06T08:21:18.313Z,5.65
2023-03-06T08:23:45.628Z,5.83
2023-03-06T08:26:15.181Z,5.95
2023-03-06T08:28:41.990Z,5.98
2023-03-06T08:31:13.180Z,6.12
2023-03-06T08:33:40.834Z,6.23
2023-03-06T08:36:07.781Z,6.42
2023-03-06T08:38:34.622Z,6.55
2023-03-06T08:41:05.964Z,6.70
2023-03-06T08:43:33.849Z,6.75
2023-03-06T08:46:00.645Z,6.73
2023-03-06T08:48:28.144Z,6.91
2023-03-06T08:50:54.988Z,6.94
2023-03-06T08:53:28.024Z,7.02
2023-03-06T08:56:04.161Z,6.91
2023-03-06T08:58:30.867Z,7.00
2023-03-06T09:00:58.171Z,7.03
2023-03-06T09:03:25.812Z,7.05
2023-03-06T09:05:52.570Z,6.99
2023-03-06T09:08:19.244Z,6.87
2023-03-06T09:10:47.619Z,6.88
2023-03-06T09:13:14.978Z,6.95
2023-03-06T09:15:41.730Z,6.98
2023-03-06T09:18:19.473Z,7.08
2023-03-06T09:20:46.160Z,7.08
2023-03-06T09:23:12.873Z,7.29
2023-03-06T09:25:39.556Z,7.23
2023-03-06T09:28:11.646Z,7.25
2023-03-06T09:30:40.578Z,7.33
2023-03-06T09:33:07.326Z,7.43
2023-03-06T09:35:34.050Z,7.52
2023-03-06T09:38:00.733Z,7.65
2023-03-06T09:40:55.506Z,7.78
2023-03-06T09:43:29.774Z,7.96
2023-03-06T09:45:57.954Z,7.86
2023-03-06T09:48:37.807Z,7.93
2023-03-06T09:51:16.474Z,7.98
2023-03-06T09:54:13.401Z,8.13
2023-03-06T09:56:47.159Z,8.16
2023-03-06T09:59:17.470Z,8.05
2023-03-06T10:02:16.716Z,8.26
2023-03-06T10:04:49.325Z,8.32
2023-03-06T10:07:22.629Z,8.29
2023-03-06T10:10:02.847Z,8.39
2023-03-06T10:12:38.152Z,8.43
2023-03-06T10:15:27.035Z,8.46
2023-03-06T10:17:53.981Z,8.46
2023-03-06T10:20:27.116Z,8.37
2023-03-06T10:23:20.942Z,8.41
2023-03-06T10:26:00.448Z,8.53
2023-03-06T10:28:42.858Z,8.49
2023-03-06T10:31:12.626Z,8.65
2023-03-06T10:33:42.460Z,8.73
2023-03-06T10:36:15.820Z,8.72
2023-03-06T10:38:48.567Z,8.99
2023-03-06T10:41:31.582Z,9.18
2023-03-06T10:44:01.300Z,9.32
2023-03-06T10:46:37.980Z,9.42
2023-03-06T10:49:34.601Z,9.52
2023-03-06T10:52:20.639Z,9.52
2023-03-06T10:54:48.425Z,9.44
2023-03-06T10:57:27.383Z,9.51
2023-03-06T11:00:04.962Z,9.43
2023-03-06T11:02:38.698Z,9.44
2023-03-06T11:05:06.984Z,9.42
2023-03-06T11:07:35.962Z,9.48
2023-03-06T11:10:19.713Z,9.40
2023-03-06T11:12:59.973Z,9.46
2023-03-06T11:15:28.441Z,9.57
2023-03-06T11:18:24.026Z,9.63
2023-03-06T11:20:53.528Z,9.59
2023-03-06T11:23:38.737Z,9.65
2023-03-06T11:26:17.477Z,9.65
2023-03-06T11:28:50.253Z,9.46
2023-03-06T11:31:21.104Z,9.53
2023-03-06T11:33:54.939Z,9.62
2023-03-06T11:36:40.009Z,9.70
2023-03-06T11:39:23.026Z,9.93
2023-03-06T11:41:56.977Z,9.73
2023-03-06T11:44:48.684Z,9.89
2023-03-06T11:47:42.356Z,9.71
2023-03-06T11:50:32.229Z,9.65
2023-03-06T11:53:00.029Z,9.51
2023-03-06T11:56:05.129Z,9.26
2023-03-06T11:58:56.518Z,9.13
2023-03-06T12:01:27.194Z,8.94
2023-03-06T12:04:16.022Z,8.91
2023-03-06T12:07:06.072Z,8.88
2023-03-06T12:09:54.359Z,8.82
2023-03-06T12:12:47.149Z,8.77
2023-03-06T12:15:41.486Z,8.80
2023-03-06T12:18:32.026Z,8.96
2023-03-06T12:20:58.811Z,9.09
2023-03-06T12:23:40.338Z,9.23
2023-03-06T12:26:10.165Z,9.43
2023-03-06T12:28:58.850Z,9.45
2023-03-06T12:31:50.054Z,9.41
2023-03-06T12:34:38.161Z,9.47
2023-03-06T12:37:52.524Z,9.71
2023-03-06T12:40:19.215Z,9.88
2023-03-06T12:43:04.428Z,9.90
2023-03-06T12:45:33.569Z,9.74
2023-03-06T12:48:02.790Z,9.60
2023-03-06T12:50:30.975Z,9.33
2023-03-06T12:53:12.702Z,9.06
2023-03-06T12:55:45.297Z,9.03
2023-03-06T12:58:30.293Z,8.72
2023-03-06T13:01:04.218Z,8.65
2023-03-06T13:03:49.575Z,8.71
2023-03-06T13:06:50.372Z,8.79
2023-03-06T13:09:39.368Z,8.88
2023-03-06T13:12:55.866Z,8.98
2023-03-06T13:15:34.617Z,9.04
2023-03-06T13:18:02.485Z,9.08
2023-03-06T13:20:38.855Z,9.10
2023-03-06T13:23:33.436Z,9.05
2023-03-06T13:26:31.145Z,8.96
2023-03-06T13:28:58.708Z,8.89
2023-03-06T13:31:36.433Z,8.81
2023-03-06T13:34:22.866Z,8.61
2023-03-06T13:36:49.759Z,8.41
2023-03-06T13:39:16.495Z,8.41
2023-03-06T13:41:59.334Z,8.51
2023-03-06T13:44:26.069Z,8.53
2023-03-06T13:47:21.734Z,8.57
2023-03-06T13:49:49.118Z,8.59
2023-03-06T13:52:30.092Z,8.66
2023-03-06T13:55:19.502Z,8.67
2023-03-06T13:57:46.135Z,8.73
2023-03-06T14:00:38.125Z,8.63
2023-03-06T14:03:10.810Z,8.57
2023-03-06T14:05:45.494Z,8.62
2023-03-06T14:08:32.580Z,8.42
2023-03-06T14:11:20.008Z,8.54
2023-03-06T14:13:50.901Z,8.57
2023-03-06T14:16:21.574Z,8.62
2023-03-06T14:18:50.819Z,8.63
2023-03-06T14:21:33.477Z,8.40
2023-03-06T14:24:02.995Z,8.56
2023-03-06T14:26:45.072Z,8.51
2023-03-06T14:29:23.460Z,8.37
2023-03-06T14:31:55.928Z,8.28
2023-03-06T14:34:25.995Z,8.20
2023-03-06T14:36:55.960Z,8.31
2023-03-06T14:39:44.212Z,8.27
2023-03-06T14:42:18.963Z,8.08
2023-03-06T14:44:49.953Z,8.07
2023-03-06T14:47:28.645Z,7.95
2023-03-06T14:50:37.167Z,7.77
2023-03-06T14:53:17.566Z,7.65
2023-03-06T14:55:53.700Z,7.41
2023-03-06T14:58:27.775Z,7.47
2023-03-06T15:00:56.636Z,7.43
2023-03-06T15:03:55.266Z,7.41
2023-03-06T15:06:44.028Z,7.27
2023-03-06T15:09:36.020Z,7.35
2023-03-06T15:12:07.187Z,7.29
2023-03-06T15:14:39.791Z,7.16
2023-03-06T15:17:18.781Z,7.12
2023-03-06T15:19:47.876Z,6.96
2023-03-06T15:22:50.428Z,6.83
2023-03-06T15:25:30.234Z,6.63
2023-03-06T15:28:21.570Z,6.62
2023-03-06T15:31:22.670Z,6.34
2023-03-06T15:34:03.792Z,6.54
2023-03-06T15:36:33.663Z,6.44
2023-03-06T15:39:01.039Z,6.43
2023-03-06T15:41:38.599Z,6.26
2023-03-06T15:44:12.696Z,6.29
2023-03-06T15:46:39.572Z,6.29
2023-03-06T15:49:14.766Z,6.28
2023-03-06T15:51:41.544Z,6.02
2023-03-06T15:54:12.421Z,5.77
2023-03-06T15:56:43.377Z,5.73
2023-03-06T15:59:23.693Z,5.98
2023-03-06T16:01:51.152Z,5.89
2023-03-06T16:04:19.844Z,5.68
2023-03-06T16:06:46.679Z,5.65
2023-03-06T16:09:14.266Z,5.68
2023-03-06T16:11:46.766Z,5.66
2023-03-06T16:14:21.368Z,5.46
2023-03-06T16:16:48.841Z,5.57
2023-03-06T16:19:25.939Z,5.51
2023-03-06T16:21:54.009Z,5.49
2023-03-06T16:24:20.994Z,5.35
2023-03-06T16:26:53.053Z,5.33
2023-03-06T16:29:27.590Z,5.32
2023-03-06T16:31:56.523Z,5.20
2023-03-06T16:34:24.015Z,5.29
2023-03-06T16:36:50.895Z,5.18
2023-03-06T16:39:23.244Z,5.15
2023-03-06T16:41:50.723Z,5.17
2023-03-06T16:44:18.043Z,5.10
2023-03-06T16:46:47.087Z,5.02
2023-03-06T16:49:18.966Z,5.02
2023-03-06T16:51:45.716Z,4.93
2023-03-06T16:54:12.932Z,4.92
2023-03-06T16:56:40.115Z,4.88
2023-03-06T16:59:06.997Z,4.92
2023-03-06T17:01:33.858Z,4.78
2023-03-06T17:04:00.715Z,4.75
2023-03-06T17:06:27.946Z,4.69
2023-03-06T17:08:54.833Z,4.83
2023-03-06T17:11:21.630Z,4.71
2023-03-06T17:13:49.202Z,4.86
2023-03-06T17:16:16.668Z,4.72
2023-03-06T17:18:45.012Z,4.91
2023-03-06T17:21:12.799Z,4.88
2023-03-06T17:23:39.526Z,4.91
2023-03-06T17:26:09.242Z,4.82
2023-03-06T17:28:37.480Z,4.60
2023-03-06T17:31:22.112Z,4.69
2023-03-06T17:33:49.503Z,4.80
2023-03-06T17:36:16.865Z,4.75
2023-03-06T17:38:43.778Z,4.73
2023-03-06T17:41:14.081Z,4.47
2023-03-06T17:43:41.074Z,4.41
2023-03-06T17:46:10.025Z,4.56
2023-03-06T17:48:37.016Z,4.51
2023-03-06T17:51:04.189Z,4.58
2023-03-06T17:53:31.236Z,4.41
2023-03-06T17:55:58.294Z,4.48
2023-03-06T17:58:26.287Z,4.46
2023-03-06T18:00:53.589Z,4.45
2023-03-06T18:03:20.791Z,4.39
2023-03-06T18:05:47.598Z,4.31
2023-03-06T18:08:14.327Z,4.49
2023-03-06T18:10:43.505Z,4.41
2023-03-06T18:13:10.553Z,4.25
2023-03-06T18:15:43.168Z,4.30
2023-03-06T18:18:09.966Z,4.30
2023-03-06T18:20:43.939Z,4.17
2023-03-06T18:23:11.887Z,4.15
2023-03-06T18:25:38.701Z,4.14
2023-03-06T18:28:06.139Z,4.32
2023-03-06T18:30:37.818Z,4.18
2023-03-06T18:33:04.803Z,4.20
2023-03-06T18:35:32.536Z,4.16
2023-03-06T18:38:02.488Z,4.12
2023-03-06T18:40:29.242Z,3.81
2023-03-06T18:42:56.006Z,4.13
2023-03-06T18:45:22.795Z,4.02
2023-03-06T18:47:49.562Z,4.05
2023-03-06T18:50:17.732Z,4.00
2023-03-06T18:52:47.010Z,4.01
2023-03-06T18:55:13.792Z,3.82
2023-03-06T18:57:40.992Z,4.07
2023-03-06T19:00:08.762Z,4.06
2023-03-06T19:02:35.702Z,3.98
2023-03-06T19:05:02.839Z,3.95
2023-03-06T19:07:29.640Z,3.96
2023-03-06T19:09:56.378Z,3.98
2023-03-06T19:12:23.742Z,3.78
2023-03-06T19:14:50.613Z,3.61
2023-03-06T19:17:17.483Z,3.96
2023-03-06T19:19:44.250Z,3.87
2023-03-06T19:22:11.086Z,3.77
2023-03-06T19:24:37.812Z,3.72
2023-03-06T19:27:11.854Z,3.88
2023-03-06T19:29:38.685Z,3.72
2023-03-06T19:32:08.694Z,3.84
2023-03-06T19:34:35.524Z,3.83
2023-03-06T19:37:02.954Z,3.82
2023-03-06T19:39:29.791Z,3.83
2023-03-06T19:41:56.585Z,3.80
2023-03-06T19:44:23.445Z,3.34
2023-03-06T19:46:50.439Z,3.77
2023-03-06T19:49:18.230Z,3.85
2023-03-06T19:51:45.009Z,3.80
2023-03-06T19:54:13.380Z,3.83
2023-03-06T19:56:40.199Z,3.78
2023-03-06T19:59:06.950Z,3.91
2023-03-06T20:01:34.489Z,3.92
2023-03-06T20:04:02.250Z,3.83
2023-03-06T20:06:33.661Z,3.89
2023-03-06T20:09:02.656Z,3.80
2023-03-06T20:11:30.091Z,3.82
2023-03-06T20:13:58.768Z,3.79
2023-03-06T20:16:28.124Z,3.84
2023-03-06T20:18:58.115Z,3.56
2023-03-06T20:21:25.982Z,3.89
2023-03-06T20:23:53.631Z,3.83
2023-03-06T20:26:20.869Z,3.80
2023-03-06T20:28:47.872Z,3.89
2023-03-06T20:31:17.021Z,3.84
2023-03-06T20:33:45.190Z,3.81
2023-03-06T20:36:14.452Z,3.87
2023-03-06T20:38:41.734Z,3.80
2023-03-06T20:41:17.935Z,3.67
2023-03-06T20:43:44.852Z,3.74
2023-03-06T20:46:13.168Z,3.82
2023-03-06T20:48:41.610Z,3.89
2023-03-06T20:51:16.199Z,3.65
2023-03-06T20:53:42.965Z,3.82
2023-03-06T20:56:14.979Z,3.79
2023-03-06T20:58:41.762Z,3.70
2023-03-06T21:01:08.901Z,3.82
2023-03-06T21:03:35.636Z,3.71
2023-03-06T21:06:02.450Z,3.30
2023-03-06T21:08:34.479Z,3.87
2023-03-06T21:11:01.212Z,3.77
2023-03-06T21:13:27.886Z,3.70
2023-03-06T21:15:55.894Z,3.81
2023-03-06T21:18:22.575Z,3.81
2023-03-06T21:20:49.580Z,3.85
2023-03-06T21:23:16.333Z,3.80
2023-03-06T21:25:52.904Z,3.82
2023-03-06T21:28:19.855Z,3.75
2023-03-06T21:30:46.661Z,3.73
2023-03-06T21:33:14.014Z,3.78
2023-03-06T21:35:42.049Z,3.80
2023-03-06T21:38:08.864Z,3.73
2023-03-06T21:40:35.833Z,3.79
2023-03-06T21:43:03.535Z,3.68
2023-03-06T21:45:31.428Z,3.77
2023-03-06T21:48:01.836Z,3.77
2023-03-06T21:50:28.875Z,3.73
2023-03-06T21:52:56.567Z,3.68
2023-03-06T21:55:23.528Z,3.76
2023-03-06T21:57:51.431Z,3.58
2023-03-06T22:00:19.600Z,3.64
2023-03-06T22:02:47.166Z,3.76
2023-03-06T22:05:14.059Z,3.68
2023-03-06T22:07:40.766Z,3.73
2023-03-06T22:10:09.571Z,3.68
2023-03-06T22:12:36.472Z,3.76
2023-03-06T22:15:03.323Z,3.61
2023-03-06T22:17:31.160Z,3.62
2023-03-06T22:19:58.038Z,3.74
2023-03-06T22:22:25.285Z,3.72
2023-03-06T22:24:51.999Z,3.59
2023-03-06T22:27:18.680Z,3.73
2023-03-06T22:29:46.039Z,3.72
2023-03-06T22:32:12.989Z,3.72
2023-03-06T22:34:39.846Z,3.73
2023-03-06T22:37:06.676Z,3.68
2023-03-06T22:39:33.436Z,3.66
2023-03-06T22:42:00.211Z,3.74
2023-03-06T22:44:26.945Z,3.55
2023-03-06T22:46:53.871Z,3.73
2023-03-06T22:49:20.677Z,3.66
2023-03-06T22:51:47.431Z,3.65
2023-03-06T22:54:14.148Z,3.70
2023-03-06T22:56:40.814Z,3.69
2023-03-06T22:59:07.549Z,3.64
2023-03-06T23:01:34.959Z,3.70
2023-03-06T23:04:04.032Z,3.70
2023-03-06T23:06:43.252Z,3.67
2023-03-06T23:09:16.556Z,3.71
2023-03-06T23:12:03.324Z,3.65
2023-03-06T23:14:51.133Z,3.66
2023-03-06T23:17:36.711Z,3.58
2023-03-06T23:20:22.626Z,3.67
2023-03-06T23:23:07.947Z,3.61
2023-03-06T23:25:40.445Z,3.55
2023-03-06T23:28:07.717Z,3.62
2023-03-06T23:30:34.425Z,3.67
2023-03-06T23:33:01.216Z,3.66
2023-03-06T23:35:28.437Z,3.64
2023-03-06T23:37:55.250Z,3.54
2023-03-06T23:40:22.389Z,3.49
2023-03-06T23:42:49.205Z,3.59
2023-03-06T23:45:16.360Z,3.61
2023-03-06T23:47:43.076Z,3.60
2023-03-06T23:50:10.497Z,3.62
2023-03-06T23:52:38.163Z,3.59
2023-03-06T23:55:05.789Z,3.57
2023-03-06T23:57:32.815Z,3.59
2023-03-06T23:59:59.489Z,3.60
